sensor_id;sensor_type;location;lat;lon;timestamp;P1;durP1;ratioP1;P2;durP2;ratioP2
15112;SDS011;7657;50.140;7.076;2022-10-18T00:01:24;7.15;;;4.47;;
15112;SDS011;7657;50.140;7.076;2022-10-18T00:03:51;9.60;;;4.40;;
15112;SDS011;7657;50.140;7.076;2022-10-18T00:06:18;7.65;;;4.60;;
15112;SDS011;7657;50.140;7.076;2022-10-18T00:08:45;8.95;;;4.70;;
15112;SDS011;7657;50.140;7.076;2022-10-18T00:11:13;8.70;;;4.90;;
15112;SDS011;7657;50.140;7.076;2022-10-18T00:13:40;6.93;;;4.70;;
15112;SDS011;7657;50.140;7.076;2022-10-18T00:16:09;7.35;;;4.75;;
15112;SDS011;7657;50.140;7.076;2022-10-18T00:18:37;6.80;;;4.45;;
15112;SDS011;7657;50.140;7.076;2022-10-18T00:21:06;5.55;;;4.80;;
15112;SDS011;7657;50.140;7.076;2022-10-18T00:23:33;6.45;;;4.97;;
15112;SDS011;7657;50.140;7.076;2022-10-18T00:26:02;7.13;;;5.28;;
15112;SDS011;7657;50.140;7.076;2022-10-18T00:28:33;7.75;;;5.20;;
15112;SDS011;7657;50.140;7.076;2022-10-18T00:31:11;7.60;;;5.03;;
15112;SDS011;7657;50.140;7.076;2022-10-18T00:33:40;7.18;;;4.45;;
15112;SDS011;7657;50.140;7.076;2022-10-18T00:36:07;4.65;;;3.55;;
15112;SDS011;7657;50.140;7.076;2022-10-18T00:38:34;6.68;;;3.95;;
15112;SDS011;7657;50.140;7.076;2022-10-18T00:41:02;8.27;;;3.97;;
15112;SDS011;7657;50.140;7.076;2022-10-18T00:43:30;5.60;;;3.75;;
15112;SDS011;7657;50.140;7.076;2022-10-18T00:45:58;8.30;;;3.80;;
15112;SDS011;7657;50.140;7.076;2022-10-18T00:48:25;6.35;;;4.28;;
15112;SDS011;7657;50.140;7.076;2022-10-18T00:50:52;9.43;;;4.40;;
15112;SDS011;7657;50.140;7.076;2022-10-18T00:53:19;5.78;;;4.10;;
15112;SDS011;7657;50.140;7.076;2022-10-18T00:55:48;7.95;;;4.18;;
15112;SDS011;7657;50.140;7.076;2022-10-18T00:58:16;6.10;;;3.80;;
15112;SDS011;7657;50.140;7.076;2022-10-18T01:00:44;8.40;;;4.57;;
15112;SDS011;7657;50.140;7.076;2022-10-18T01:03:13;7.00;;;3.97;;
15112;SDS011;7657;50.140;7.076;2022-10-18T01:05:41;5.63;;;3.95;;
15112;SDS011;7657;50.140;7.076;2022-10-18T01:08:16;5.53;;;4.00;;
15112;SDS011;7657;50.140;7.076;2022-10-18T01:10:59;6.72;;;3.83;;
15112;SDS011;7657;50.140;7.076;2022-10-18T01:13:40;4.28;;;3.88;;
15112;SDS011;7657;50.140;7.076;2022-10-18T01:16:26;4.53;;;3.80;;
15112;SDS011;7657;50.140;7.076;2022-10-18T01:19:00;3.92;;;3.47;;
15112;SDS011;7657;50.140;7.076;2022-10-18T01:21:33;5.20;;;3.70;;
15112;SDS011;7657;50.140;7.076;2022-10-18T01:24:17;3.65;;;2.83;;
15112;SDS011;7657;50.140;7.076;2022-10-18T01:27:18;4.35;;;3.30;;
15112;SDS011;7657;50.140;7.076;2022-10-18T01:29:57;23.80;;;4.30;;
15112;SDS011;7657;50.140;7.076;2022-10-18T01:32:40;42.95;;;4.55;;
15112;SDS011;7657;50.140;7.076;2022-10-18T01:35:13;4.60;;;2.90;;
15112;SDS011;7657;50.140;7.076;2022-10-18T01:37:44;4.50;;;3.08;;
15112;SDS011;7657;50.140;7.076;2022-10-18T01:40:15;3.78;;;2.90;;
15112;SDS011;7657;50.140;7.076;2022-10-18T01:42:45;5.95;;;3.10;;
15112;SDS011;7657;50.140;7.076;2022-10-18T01:45:15;3.75;;;3.15;;
15112;SDS011;7657;50.140;7.076;2022-10-18T01:47:44;8.85;;;3.33;;
15112;SDS011;7657;50.140;7.076;2022-10-18T01:50:13;3.10;;;2.80;;
15112;SDS011;7657;50.140;7.076;2022-10-18T01:52:46;9.55;;;3.40;;
15112;SDS011;7657;50.140;7.076;2022-10-18T01:55:13;6.55;;;2.85;;
15112;SDS011;7657;50.140;7.076;2022-10-18T01:57:41;3.33;;;2.92;;
15112;SDS011;7657;50.140;7.076;2022-10-18T02:00:16;3.85;;;2.80;;
15112;SDS011;7657;50.140;7.076;2022-10-18T02:02:49;4.32;;;2.90;;
15112;SDS011;7657;50.140;7.076;2022-10-18T02:05:21;3.28;;;2.97;;
15112;SDS011;7657;50.140;7.076;2022-10-18T02:07:55;2.83;;;2.63;;
15112;SDS011;7657;50.140;7.076;2022-10-18T02:10:28;3.08;;;2.78;;
15112;SDS011;7657;50.140;7.076;2022-10-18T02:12:59;4.70;;;2.75;;
15112;SDS011;7657;50.140;7.076;2022-10-18T02:15:30;4.35;;;2.13;;
15112;SDS011;7657;50.140;7.076;2022-10-18T02:17:59;3.03;;;2.25;;
15112;SDS011;7657;50.140;7.076;2022-10-18T02:20:27;2.00;;;1.90;;
15112;SDS011;7657;50.140;7.076;2022-10-18T02:22:56;2.17;;;1.98;;
15112;SDS011;7657;50.140;7.076;2022-10-18T02:25:26;2.15;;;2.05;;
15112;SDS011;7657;50.140;7.076;2022-10-18T02:27:56;1.90;;;1.80;;
15112;SDS011;7657;50.140;7.076;2022-10-18T02:30:24;2.00;;;1.80;;
15112;SDS011;7657;50.140;7.076;2022-10-18T02:32:57;1.70;;;1.60;;
15112;SDS011;7657;50.140;7.076;2022-10-18T02:35:30;5.65;;;2.20;;
15112;SDS011;7657;50.140;7.076;2022-10-18T02:38:00;2.03;;;1.92;;
15112;SDS011;7657;50.140;7.076;2022-10-18T02:40:29;7.15;;;2.25;;
15112;SDS011;7657;50.140;7.076;2022-10-18T02:42:57;20.02;;;3.20;;
15112;SDS011;7657;50.140;7.076;2022-10-18T02:45:24;6.45;;;2.17;;
15112;SDS011;7657;50.140;7.076;2022-10-18T02:47:52;2.30;;;2.10;;
15112;SDS011;7657;50.140;7.076;2022-10-18T02:50:20;1.98;;;1.88;;
15112;SDS011;7657;50.140;7.076;2022-10-18T02:52:47;2.00;;;1.90;;
15112;SDS011;7657;50.140;7.076;2022-10-18T02:55:14;3.30;;;1.88;;
15112;SDS011;7657;50.140;7.076;2022-10-18T02:57:41;1.80;;;1.65;;
15112;SDS011;7657;50.140;7.076;2022-10-18T03:00:08;2.75;;;1.70;;
15112;SDS011;7657;50.140;7.076;2022-10-18T03:02:36;2.03;;;1.67;;
15112;SDS011;7657;50.140;7.076;2022-10-18T03:05:03;1.98;;;1.50;;
15112;SDS011;7657;50.140;7.076;2022-10-18T03:07:31;1.83;;;1.73;;
15112;SDS011;7657;50.140;7.076;2022-10-18T03:09:58;2.25;;;1.67;;
15112;SDS011;7657;50.140;7.076;2022-10-18T03:12:25;3.30;;;1.77;;
15112;SDS011;7657;50.140;7.076;2022-10-18T03:14:52;1.88;;;1.75;;
15112;SDS011;7657;50.140;7.076;2022-10-18T03:17:19;3.17;;;2.00;;
15112;SDS011;7657;50.140;7.076;2022-10-18T03:19:46;2.13;;;1.90;;
15112;SDS011;7657;50.140;7.076;2022-10-18T03:22:13;4.15;;;2.17;;
15112;SDS011;7657;50.140;7.076;2022-10-18T03:24:41;3.80;;;2.85;;
15112;SDS011;7657;50.140;7.076;2022-10-18T03:27:08;2.92;;;2.10;;
15112;SDS011;7657;50.140;7.076;2022-10-18T03:29:35;4.55;;;2.28;;
15112;SDS011;7657;50.140;7.076;2022-10-18T03:32:02;2.63;;;2.25;;
15112;SDS011;7657;50.140;7.076;2022-10-18T03:34:29;2.47;;;1.98;;
15112;SDS011;7657;50.140;7.076;2022-10-18T03:36:56;4.00;;;2.42;;
15112;SDS011;7657;50.140;7.076;2022-10-18T03:39:22;2.35;;;2.13;;
15112;SDS011;7657;50.140;7.076;2022-10-18T03:41:51;2.50;;;1.95;;
15112;SDS011;7657;50.140;7.076;2022-10-18T03:44:18;3.63;;;2.20;;
15112;SDS011;7657;50.140;7.076;2022-10-18T03:46:44;4.53;;;2.80;;
15112;SDS011;7657;50.140;7.076;2022-10-18T03:49:11;3.25;;;1.98;;
15112;SDS011;7657;50.140;7.076;2022-10-18T03:51:38;1.98;;;1.80;;
15112;SDS011;7657;50.140;7.076;2022-10-18T03:54:05;2.28;;;1.80;;
15112;SDS011;7657;50.140;7.076;2022-10-18T03:56:32;3.15;;;2.00;;
15112;SDS011;7657;50.140;7.076;2022-10-18T03:59:00;2.20;;;2.05;;
15112;SDS011;7657;50.140;7.076;2022-10-18T04:01:28;2.33;;;2.13;;
15112;SDS011;7657;50.140;7.076;2022-10-18T04:03:55;2.10;;;2.00;;
15112;SDS011;7657;50.140;7.076;2022-10-18T04:06:22;2.10;;;2.00;;
15112;SDS011;7657;50.140;7.076;2022-10-18T04:08:49;2.33;;;1.83;;
15112;SDS011;7657;50.140;7.076;2022-10-18T04:11:16;3.50;;;2.40;;
15112;SDS011;7657;50.140;7.076;2022-10-18T04:13:43;2.58;;;1.92;;
15112;SDS011;7657;50.140;7.076;2022-10-18T04:16:11;2.90;;;2.40;;
15112;SDS011;7657;50.140;7.076;2022-10-18T04:18:38;3.53;;;2.15;;
15112;SDS011;7657;50.140;7.076;2022-10-18T04:21:05;2.38;;;2.17;;
15112;SDS011;7657;50.140;7.076;2022-10-18T04:23:32;2.20;;;2.05;;
15112;SDS011;7657;50.140;7.076;2022-10-18T04:25:59;2.38;;;2.10;;
15112;SDS011;7657;50.140;7.076;2022-10-18T04:28:25;2.85;;;2.30;;
15112;SDS011;7657;50.140;7.076;2022-10-18T04:30:52;2.83;;;1.98;;
15112;SDS011;7657;50.140;7.076;2022-10-18T04:33:21;2.70;;;2.20;;
15112;SDS011;7657;50.140;7.076;2022-10-18T04:35:49;4.65;;;2.45;;
15112;SDS011;7657;50.140;7.076;2022-10-18T04:38:17;2.65;;;2.28;;
15112;SDS011;7657;50.140;7.076;2022-10-18T04:40:44;3.85;;;2.58;;
15112;SDS011;7657;50.140;7.076;2022-10-18T04:43:11;4.55;;;2.60;;
15112;SDS011;7657;50.140;7.076;2022-10-18T04:45:38;2.85;;;2.40;;
15112;SDS011;7657;50.140;7.076;2022-10-18T04:48:05;3.70;;;2.40;;
15112;SDS011;7657;50.140;7.076;2022-10-18T04:50:34;2.80;;;2.35;;
15112;SDS011;7657;50.140;7.076;2022-10-18T04:53:01;8.85;;;2.53;;
15112;SDS011;7657;50.140;7.076;2022-10-18T04:55:28;2.75;;;2.40;;
15112;SDS011;7657;50.140;7.076;2022-10-18T04:57:54;3.53;;;2.33;;
15112;SDS011;7657;50.140;7.076;2022-10-18T05:00:21;3.72;;;2.70;;
15112;SDS011;7657;50.140;7.076;2022-10-18T05:02:48;2.83;;;2.63;;
15112;SDS011;7657;50.140;7.076;2022-10-18T05:05:15;3.55;;;2.90;;
15112;SDS011;7657;50.140;7.076;2022-10-18T05:07:44;4.50;;;3.28;;
15112;SDS011;7657;50.140;7.076;2022-10-18T05:10:10;4.53;;;3.35;;
15112;SDS011;7657;50.140;7.076;2022-10-18T05:12:37;5.00;;;3.60;;
15112;SDS011;7657;50.140;7.076;2022-10-18T05:15:04;3.30;;;3.00;;
15112;SDS011;7657;50.140;7.076;2022-10-18T05:17:32;4.13;;;3.28;;
15112;SDS011;7657;50.140;7.076;2022-10-18T05:19:59;3.95;;;3.35;;
15112;SDS011;7657;50.140;7.076;2022-10-18T05:22:25;4.07;;;3.30;;
15112;SDS011;7657;50.140;7.076;2022-10-18T05:24:54;5.00;;;4.22;;
15112;SDS011;7657;50.140;7.076;2022-10-18T05:27:21;6.70;;;4.45;;
15112;SDS011;7657;50.140;7.076;2022-10-18T05:29:48;4.00;;;3.70;;
15112;SDS011;7657;50.140;7.076;2022-10-18T05:32:14;4.13;;;3.28;;
15112;SDS011;7657;50.140;7.076;2022-10-18T05:34:41;3.65;;;3.03;;
15112;SDS011;7657;50.140;7.076;2022-10-18T05:37:08;13.25;;;11.73;;
15112;SDS011;7657;50.140;7.076;2022-10-18T05:39:35;14.10;;;12.73;;
15112;SDS011;7657;50.140;7.076;2022-10-18T05:42:04;8.95;;;8.15;;
15112;SDS011;7657;50.140;7.076;2022-10-18T05:44:32;3.67;;;3.25;;
15112;SDS011;7657;50.140;7.076;2022-10-18T05:46:59;3.30;;;2.92;;
15112;SDS011;7657;50.140;7.076;2022-10-18T05:49:26;5.18;;;3.17;;
15112;SDS011;7657;50.140;7.076;2022-10-18T05:51:53;2.85;;;2.65;;
15112;SDS011;7657;50.140;7.076;2022-10-18T05:54:20;3.40;;;2.70;;
15112;SDS011;7657;50.140;7.076;2022-10-18T05:56:46;2.60;;;2.40;;
15112;SDS011;7657;50.140;7.076;2022-10-18T05:59:15;2.95;;;2.53;;
15112;SDS011;7657;50.140;7.076;2022-10-18T06:01:42;2.80;;;2.50;;
15112;SDS011;7657;50.140;7.076;2022-10-18T06:04:09;4.22;;;2.60;;
15112;SDS011;7657;50.140;7.076;2022-10-18T06:06:36;4.97;;;2.40;;
15112;SDS011;7657;50.140;7.076;2022-10-18T06:09:04;2.30;;;2.10;;
15112;SDS011;7657;50.140;7.076;2022-10-18T06:11:32;3.45;;;1.90;;
15112;SDS011;7657;50.140;7.076;2022-10-18T06:14:00;2.47;;;1.98;;
15112;SDS011;7657;50.140;7.076;2022-10-18T06:16:29;1.70;;;1.60;;
15112;SDS011;7657;50.140;7.076;2022-10-18T06:18:56;3.15;;;1.90;;
15112;SDS011;7657;50.140;7.076;2022-10-18T06:21:24;3.78;;;1.83;;
15112;SDS011;7657;50.140;7.076;2022-10-18T06:23:51;2.33;;;1.80;;
15112;SDS011;7657;50.140;7.076;2022-10-18T06:26:22;1.80;;;1.50;;
15112;SDS011;7657;50.140;7.076;2022-10-18T06:28:50;1.98;;;1.40;;
15112;SDS011;7657;50.140;7.076;2022-10-18T06:31:17;1.40;;;1.30;;
15112;SDS011;7657;50.140;7.076;2022-10-18T06:33:46;1.95;;;1.35;;
15112;SDS011;7657;50.140;7.076;2022-10-18T06:36:14;1.88;;;1.20;;
15112;SDS011;7657;50.140;7.076;2022-10-18T06:38:42;1.10;;;1.08;;
15112;SDS011;7657;50.140;7.076;2022-10-18T06:41:09;1.60;;;1.50;;
15112;SDS011;7657;50.140;7.076;2022-10-18T06:43:37;3.08;;;1.17;;
15112;SDS011;7657;50.140;7.076;2022-10-18T06:46:04;1.95;;;1.85;;
15112;SDS011;7657;50.140;7.076;2022-10-18T06:48:32;1.52;;;1.10;;
15112;SDS011;7657;50.140;7.076;2022-10-18T06:51:02;1.88;;;1.77;;
15112;SDS011;7657;50.140;7.076;2022-10-18T06:53:31;1.48;;;1.35;;
15112;SDS011;7657;50.140;7.076;2022-10-18T06:55:59;1.83;;;1.63;;
15112;SDS011;7657;50.140;7.076;2022-10-18T06:58:26;3.08;;;1.48;;
15112;SDS011;7657;50.140;7.076;2022-10-18T07:00:53;3.13;;;1.95;;
15112;SDS011;7657;50.140;7.076;2022-10-18T07:03:21;1.63;;;1.50;;
15112;SDS011;7657;50.140;7.076;2022-10-18T07:05:48;1.40;;;1.20;;
15112;SDS011;7657;50.140;7.076;2022-10-18T07:08:17;1.35;;;1.10;;
15112;SDS011;7657;50.140;7.076;2022-10-18T07:10:49;0.70;;;0.70;;
15112;SDS011;7657;50.140;7.076;2022-10-18T07:13:17;0.80;;;0.80;;
15112;SDS011;7657;50.140;7.076;2022-10-18T07:15:44;1.20;;;1.10;;
15112;SDS011;7657;50.140;7.076;2022-10-18T07:18:11;0.90;;;0.90;;
15112;SDS011;7657;50.140;7.076;2022-10-18T07:20:38;0.95;;;0.85;;
15112;SDS011;7657;50.140;7.076;2022-10-18T07:23:05;0.65;;;0.65;;
15112;SDS011;7657;50.140;7.076;2022-10-18T07:25:34;1.75;;;0.80;;
15112;SDS011;7657;50.140;7.076;2022-10-18T07:28:01;1.88;;;0.95;;
15112;SDS011;7657;50.140;7.076;2022-10-18T07:30:29;0.80;;;0.80;;
15112;SDS011;7657;50.140;7.076;2022-10-18T07:32:55;1.00;;;0.80;;
15112;SDS011;7657;50.140;7.076;2022-10-18T07:35:22;1.40;;;0.60;;
15112;SDS011;7657;50.140;7.076;2022-10-18T07:37:49;0.63;;;0.50;;
15112;SDS011;7657;50.140;7.076;2022-10-18T07:40:17;0.68;;;0.50;;
15112;SDS011;7657;50.140;7.076;2022-10-18T07:42:45;1.00;;;0.90;;
15112;SDS011;7657;50.140;7.076;2022-10-18T07:45:12;0.70;;;0.70;;
15112;SDS011;7657;50.140;7.076;2022-10-18T07:47:39;0.57;;;0.57;;
15112;SDS011;7657;50.140;7.076;2022-10-18T07:50:06;0.73;;;0.60;;
15112;SDS011;7657;50.140;7.076;2022-10-18T07:52:34;1.38;;;0.60;;
15112;SDS011;7657;50.140;7.076;2022-10-18T07:55:00;1.30;;;0.55;;
15112;SDS011;7657;50.140;7.076;2022-10-18T07:57:27;1.58;;;1.15;;
15112;SDS011;7657;50.140;7.076;2022-10-18T07:59:56;1.45;;;0.85;;
15112;SDS011;7657;50.140;7.076;2022-10-18T08:02:22;2.78;;;1.10;;
15112;SDS011;7657;50.140;7.076;2022-10-18T08:04:49;0.60;;;0.60;;
15112;SDS011;7657;50.140;7.076;2022-10-18T08:07:16;0.82;;;0.82;;
15112;SDS011;7657;50.140;7.076;2022-10-18T08:09:43;0.60;;;0.60;;
15112;SDS011;7657;50.140;7.076;2022-10-18T08:12:10;1.45;;;1.35;;
15112;SDS011;7657;50.140;7.076;2022-10-18T08:14:37;0.80;;;0.80;;
15112;SDS011;7657;50.140;7.076;2022-10-18T08:17:05;1.80;;;1.40;;
15112;SDS011;7657;50.140;7.076;2022-10-18T08:19:32;0.95;;;0.88;;
15112;SDS011;7657;50.140;7.076;2022-10-18T08:21:59;1.45;;;0.55;;
15112;SDS011;7657;50.140;7.076;2022-10-18T08:24:26;1.85;;;0.75;;
15112;SDS011;7657;50.140;7.076;2022-10-18T08:26:53;1.65;;;0.70;;
15112;SDS011;7657;50.140;7.076;2022-10-18T08:29:20;1.80;;;0.80;;
15112;SDS011;7657;50.140;7.076;2022-10-18T08:31:48;1.08;;;1.02;;
15112;SDS011;7657;50.140;7.076;2022-10-18T08:34:16;3.13;;;0.82;;
15112;SDS011;7657;50.140;7.076;2022-10-18T08:36:43;1.40;;;1.10;;
15112;SDS011;7657;50.140;7.076;2022-10-18T08:39:10;0.85;;;0.80;;
15112;SDS011;7657;50.140;7.076;2022-10-18T08:41:46;1.27;;;1.17;;
15112;SDS011;7657;50.140;7.076;2022-10-18T08:44:31;1.35;;;0.80;;
15112;SDS011;7657;50.140;7.076;2022-10-18T08:47:10;1.33;;;0.82;;
15112;SDS011;7657;50.140;7.076;2022-10-18T08:49:42;1.40;;;1.30;;
15112;SDS011;7657;50.140;7.076;2022-10-18T08:52:13;0.80;;;0.80;;
15112;SDS011;7657;50.140;7.076;2022-10-18T08:54:48;0.90;;;0.90;;
15112;SDS011;7657;50.140;7.076;2022-10-18T08:57:22;0.90;;;0.90;;
15112;SDS011;7657;50.140;7.076;2022-10-18T08:59:48;3.17;;;0.80;;
15112;SDS011;7657;50.140;7.076;2022-10-18T09:02:21;1.38;;;1.27;;
15112;SDS011;7657;50.140;7.076;2022-10-18T09:05:02;2.78;;;1.70;;
15112;SDS011;7657;50.140;7.076;2022-10-18T09:08:01;1.77;;;1.65;;
15112;SDS011;7657;50.140;7.076;2022-10-18T09:10:40;1.60;;;1.00;;
15112;SDS011;7657;50.140;7.076;2022-10-18T09:13:16;1.80;;;0.98;;
15112;SDS011;7657;50.140;7.076;2022-10-18T09:15:59;1.20;;;1.08;;
15112;SDS011;7657;50.140;7.076;2022-10-18T09:18:37;1.98;;;1.27;;
15112;SDS011;7657;50.140;7.076;2022-10-18T09:21:19;1.58;;;0.95;;
15112;SDS011;7657;50.140;7.076;2022-10-18T09:23:49;1.17;;;0.80;;
15112;SDS011;7657;50.140;7.076;2022-10-18T09:26:25;1.13;;;0.70;;
15112;SDS011;7657;50.140;7.076;2022-10-18T09:28:56;0.63;;;0.63;;
15112;SDS011;7657;50.140;7.076;2022-10-18T09:31:33;0.63;;;0.63;;
15112;SDS011;7657;50.140;7.076;2022-10-18T09:34:10;0.68;;;0.68;;
15112;SDS011;7657;50.140;7.076;2022-10-18T09:36:45;3.45;;;2.05;;
15112;SDS011;7657;50.140;7.076;2022-10-18T09:39:17;1.65;;;0.75;;
15112;SDS011;7657;50.140;7.076;2022-10-18T09:41:49;2.08;;;0.98;;
15112;SDS011;7657;50.140;7.076;2022-10-18T09:44:19;3.05;;;2.00;;
15112;SDS011;7657;50.140;7.076;2022-10-18T09:46:49;1.30;;;0.77;;
15112;SDS011;7657;50.140;7.076;2022-10-18T09:49:23;1.30;;;0.90;;
15112;SDS011;7657;50.140;7.076;2022-10-18T09:51:56;1.58;;;0.95;;
15112;SDS011;7657;50.140;7.076;2022-10-18T09:54:27;1.13;;;0.77;;
15112;SDS011;7657;50.140;7.076;2022-10-18T09:57:01;3.38;;;1.00;;
15112;SDS011;7657;50.140;7.076;2022-10-18T09:59:32;1.60;;;1.20;;
15112;SDS011;7657;50.140;7.076;2022-10-18T10:02:05;1.50;;;1.35;;
15112;SDS011;7657;50.140;7.076;2022-10-18T10:04:37;2.08;;;1.95;;
15112;SDS011;7657;50.140;7.076;2022-10-18T10:07:06;3.22;;;2.80;;
15112;SDS011;7657;50.140;7.076;2022-10-18T10:09:36;2.25;;;1.70;;
15112;SDS011;7657;50.140;7.076;2022-10-18T10:12:22;2.20;;;2.10;;
15112;SDS011;7657;50.140;7.076;2022-10-18T10:14:51;2.28;;;2.17;;
15112;SDS011;7657;50.140;7.076;2022-10-18T10:17:22;3.58;;;3.28;;
15112;SDS011;7657;50.140;7.076;2022-10-18T10:19:54;4.00;;;3.67;;
15112;SDS011;7657;50.140;7.076;2022-10-18T10:22:31;3.00;;;2.80;;
15112;SDS011;7657;50.140;7.076;2022-10-18T10:25:02;4.30;;;3.97;;
15112;SDS011;7657;50.140;7.076;2022-10-18T10:27:31;3.10;;;2.90;;
15112;SDS011;7657;50.140;7.076;2022-10-18T10:30:10;2.22;;;2.03;;
15112;SDS011;7657;50.140;7.076;2022-10-18T10:32:49;3.95;;;3.63;;
15112;SDS011;7657;50.140;7.076;2022-10-18T10:35:26;2.53;;;2.33;;
15112;SDS011;7657;50.140;7.076;2022-10-18T10:37:56;5.25;;;2.65;;
15112;SDS011;7657;50.140;7.076;2022-10-18T10:40:23;1.67;;;1.58;;
15112;SDS011;7657;50.140;7.076;2022-10-18T10:43:00;3.17;;;2.88;;
15112;SDS011;7657;50.140;7.076;2022-10-18T10:45:34;2.33;;;2.22;;
15112;SDS011;7657;50.140;7.076;2022-10-18T10:48:05;1.60;;;1.50;;
15112;SDS011;7657;50.140;7.076;2022-10-18T10:50:46;2.53;;;1.40;;
15112;SDS011;7657;50.140;7.076;2022-10-18T10:53:31;1.38;;;1.20;;
15112;SDS011;7657;50.140;7.076;2022-10-18T10:56:16;2.47;;;2.00;;
15112;SDS011;7657;50.140;7.076;2022-10-18T10:58:47;1.00;;;1.00;;
15112;SDS011;7657;50.140;7.076;2022-10-18T11:01:20;1.50;;;1.40;;
15112;SDS011;7657;50.140;7.076;2022-10-18T11:03:50;3.72;;;1.30;;
15112;SDS011;7657;50.140;7.076;2022-10-18T11:06:33;1.33;;;1.23;;
15112;SDS011;7657;50.140;7.076;2022-10-18T11:09:17;1.75;;;1.65;;
15112;SDS011;7657;50.140;7.076;2022-10-18T11:11:55;1.40;;;1.30;;
15112;SDS011;7657;50.140;7.076;2022-10-18T11:14:28;1.20;;;1.20;;
15112;SDS011;7657;50.140;7.076;2022-10-18T11:17:03;1.98;;;1.70;;
15112;SDS011;7657;50.140;7.076;2022-10-18T11:19:37;2.90;;;2.00;;
15112;SDS011;7657;50.140;7.076;2022-10-18T11:22:11;2.35;;;2.15;;
15112;SDS011;7657;50.140;7.076;2022-10-18T11:24:43;2.00;;;1.90;;
15112;SDS011;7657;50.140;7.076;2022-10-18T11:27:12;1.85;;;1.42;;
15112;SDS011;7657;50.140;7.076;2022-10-18T11:29:48;2.90;;;2.20;;
15112;SDS011;7657;50.140;7.076;2022-10-18T11:32:29;1.63;;;1.52;;
15112;SDS011;7657;50.140;7.076;2022-10-18T11:35:06;1.60;;;1.50;;
15112;SDS011;7657;50.140;7.076;2022-10-18T11:37:53;1.83;;;1.73;;
15112;SDS011;7657;50.140;7.076;2022-10-18T11:40:38;1.98;;;1.30;;
15112;SDS011;7657;50.140;7.076;2022-10-18T11:43:19;2.17;;;1.98;;
15112;SDS011;7657;50.140;7.076;2022-10-18T11:45:53;2.55;;;2.35;;
15112;SDS011;7657;50.140;7.076;2022-10-18T11:48:33;2.50;;;2.30;;
15112;SDS011;7657;50.140;7.076;2022-10-18T11:51:27;2.00;;;1.90;;
15112;SDS011;7657;50.140;7.076;2022-10-18T11:54:03;2.30;;;2.10;;
15112;SDS011;7657;50.140;7.076;2022-10-18T11:56:43;3.47;;;2.58;;
15112;SDS011;7657;50.140;7.076;2022-10-18T11:59:22;1.75;;;1.40;;
15112;SDS011;7657;50.140;7.076;2022-10-18T12:01:58;2.58;;;1.88;;
15112;SDS011;7657;50.140;7.076;2022-10-18T12:04:38;1.60;;;1.50;;
15112;SDS011;7657;50.140;7.076;2022-10-18T12:07:09;2.15;;;1.70;;
15112;SDS011;7657;50.140;7.076;2022-10-18T12:09:40;1.65;;;1.55;;
15112;SDS011;7657;50.140;7.076;2022-10-18T12:12:12;3.47;;;1.80;;
15112;SDS011;7657;50.140;7.076;2022-10-18T12:14:43;1.80;;;1.70;;
15112;SDS011;7657;50.140;7.076;2022-10-18T12:17:15;2.25;;;1.52;;
15112;SDS011;7657;50.140;7.076;2022-10-18T12:19:47;3.50;;;2.70;;
15112;SDS011;7657;50.140;7.076;2022-10-18T12:22:20;3.13;;;2.60;;
15112;SDS011;7657;50.140;7.076;2022-10-18T12:24:52;1.50;;;1.40;;
15112;SDS011;7657;50.140;7.076;2022-10-18T12:27:22;1.85;;;1.75;;
15112;SDS011;7657;50.140;7.076;2022-10-18T12:29:59;1.38;;;1.30;;
15112;SDS011;7657;50.140;7.076;2022-10-18T12:32:32;1.95;;;1.85;;
15112;SDS011;7657;50.140;7.076;2022-10-18T12:35:02;1.50;;;1.40;;
15112;SDS011;7657;50.140;7.076;2022-10-18T12:40:20;3.10;;;1.55;;
15112;SDS011;7657;50.140;7.076;2022-10-18T12:42:50;1.90;;;1.60;;
15112;SDS011;7657;50.140;7.076;2022-10-18T12:45:21;3.65;;;1.73;;
15112;SDS011;7657;50.140;7.076;2022-10-18T12:47:51;1.92;;;1.77;;
15112;SDS011;7657;50.140;7.076;2022-10-18T12:50:27;1.73;;;1.63;;
15112;SDS011;7657;50.140;7.076;2022-10-18T12:55:44;1.70;;;1.60;;
15112;SDS011;7657;50.140;7.076;2022-10-18T12:58:23;1.70;;;1.60;;
15112;SDS011;7657;50.140;7.076;2022-10-18T13:01:04;2.10;;;1.45;;
15112;SDS011;7657;50.140;7.076;2022-10-18T13:03:49;2.10;;;2.00;;
15112;SDS011;7657;50.140;7.076;2022-10-18T13:06:18;1.80;;;1.50;;
15112;SDS011;7657;50.140;7.076;2022-10-18T13:08:46;2.55;;;1.77;;
15112;SDS011;7657;50.140;7.076;2022-10-18T13:11:25;2.00;;;1.90;;
15112;SDS011;7657;50.140;7.076;2022-10-18T13:16:54;4.38;;;3.95;;
15112;SDS011;7657;50.140;7.076;2022-10-18T13:19:29;6.53;;;5.10;;
15112;SDS011;7657;50.140;7.076;2022-10-18T13:22:13;15.38;;;10.25;;
15112;SDS011;7657;50.140;7.076;2022-10-18T13:24:54;10.93;;;8.18;;
15112;SDS011;7657;50.140;7.076;2022-10-18T13:27:29;16.08;;;11.00;;
15112;SDS011;7657;50.140;7.076;2022-10-18T13:30:13;11.05;;;8.32;;
15112;SDS011;7657;50.140;7.076;2022-10-18T13:32:51;7.32;;;5.53;;
15112;SDS011;7657;50.140;7.076;2022-10-18T13:35:41;15.52;;;11.93;;
15112;SDS011;7657;50.140;7.076;2022-10-18T13:38:27;7.15;;;5.35;;
15112;SDS011;7657;50.140;7.076;2022-10-18T13:41:04;2.22;;;2.03;;
15112;SDS011;7657;50.140;7.076;2022-10-18T13:52:56;2.60;;;2.40;;
15112;SDS011;7657;50.140;7.076;2022-10-18T13:58:46;3.53;;;2.50;;
15112;SDS011;7657;50.140;7.076;2022-10-18T14:01:25;3.47;;;2.10;;
15112;SDS011;7657;50.140;7.076;2022-10-18T14:04:06;2.38;;;2.20;;
15112;SDS011;7657;50.140;7.076;2022-10-18T14:06:56;2.67;;;2.42;;
15112;SDS011;7657;50.140;7.076;2022-10-18T14:09:27;3.78;;;2.03;;
15112;SDS011;7657;50.140;7.076;2022-10-18T14:12:00;2.30;;;1.67;;
15112;SDS011;7657;50.140;7.076;2022-10-18T14:14:34;2.92;;;2.17;;
15112;SDS011;7657;50.140;7.076;2022-10-18T14:17:07;2.38;;;2.17;;
15112;SDS011;7657;50.140;7.076;2022-10-18T14:19:45;2.28;;;2.00;;
15112;SDS011;7657;50.140;7.076;2022-10-18T14:22:16;2.42;;;2.22;;
15112;SDS011;7657;50.140;7.076;2022-10-18T14:24:48;2.75;;;2.50;;
15112;SDS011;7657;50.140;7.076;2022-10-18T14:27:20;2.83;;;2.40;;
15112;SDS011;7657;50.140;7.076;2022-10-18T14:29:49;7.55;;;4.80;;
15112;SDS011;7657;50.140;7.076;2022-10-18T14:32:33;3.10;;;2.80;;
15112;SDS011;7657;50.140;7.076;2022-10-18T14:35:01;3.10;;;2.80;;
15112;SDS011;7657;50.140;7.076;2022-10-18T14:37:29;3.05;;;2.85;;
15112;SDS011;7657;50.140;7.076;2022-10-18T14:40:00;3.22;;;3.03;;
15112;SDS011;7657;50.140;7.076;2022-10-18T14:42:28;4.03;;;3.30;;
15112;SDS011;7657;50.140;7.076;2022-10-18T14:44:55;4.07;;;3.33;;
15112;SDS011;7657;50.140;7.076;2022-10-18T14:47:23;2.70;;;2.50;;
15112;SDS011;7657;50.140;7.076;2022-10-18T14:49:51;3.05;;;2.67;;
15112;SDS011;7657;50.140;7.076;2022-10-18T14:52:22;10.23;;;8.40;;
15112;SDS011;7657;50.140;7.076;2022-10-18T14:54:53;8.32;;;6.82;;
15112;SDS011;7657;50.140;7.076;2022-10-18T14:57:23;3.55;;;3.25;;
15112;SDS011;7657;50.140;7.076;2022-10-18T14:59:54;4.05;;;3.50;;
15112;SDS011;7657;50.140;7.076;2022-10-18T15:02:24;4.55;;;3.30;;
15112;SDS011;7657;50.140;7.076;2022-10-18T15:04:54;8.52;;;5.07;;
15112;SDS011;7657;50.140;7.076;2022-10-18T15:07:22;4.78;;;4.28;;
15112;SDS011;7657;50.140;7.076;2022-10-18T15:09:52;5.13;;;3.78;;
15112;SDS011;7657;50.140;7.076;2022-10-18T15:12:23;4.07;;;3.67;;
15112;SDS011;7657;50.140;7.076;2022-10-18T15:14:52;6.93;;;3.70;;
15112;SDS011;7657;50.140;7.076;2022-10-18T15:17:20;9.18;;;6.20;;
15112;SDS011;7657;50.140;7.076;2022-10-18T15:19:55;7.47;;;5.85;;
15112;SDS011;7657;50.140;7.076;2022-10-18T15:22:23;8.13;;;6.28;;
15112;SDS011;7657;50.140;7.076;2022-10-18T15:25:11;12.90;;;9.73;;
15112;SDS011;7657;50.140;7.076;2022-10-18T15:27:42;6.22;;;5.60;;
15112;SDS011;7657;50.140;7.076;2022-10-18T15:30:15;5.03;;;3.72;;
15112;SDS011;7657;50.140;7.076;2022-10-18T15:32:48;7.28;;;4.63;;
15112;SDS011;7657;50.140;7.076;2022-10-18T15:35:18;4.78;;;4.38;;
15112;SDS011;7657;50.140;7.076;2022-10-18T15:37:48;3.80;;;3.50;;
15112;SDS011;7657;50.140;7.076;2022-10-18T15:43:03;4.90;;;4.50;;
15112;SDS011;7657;50.140;7.076;2022-10-18T15:45:52;4.78;;;4.38;;
15112;SDS011;7657;50.140;7.076;2022-10-18T15:48:21;5.57;;;4.78;;